createdAt,value
2018-04-14T00:00:35.942Z,1003.62
2018-04-14T00:01:16.455Z,1003.61
2018-04-14T00:01:56.979Z,1003.6
2018-04-14T00:02:37.512Z,1003.59
2018-04-14T00:03:18.042Z,1003.56
2018-04-14T00:03:58.555Z,1003.6
2018-04-14T00:04:39.079Z,1003.55
2018-04-14T00:05:19.608Z,1003.59
2018-04-14T00:06:00.133Z,1003.59
2018-04-14T00:06:40.653Z,1003.57
2018-04-14T00:07:21.175Z,1003.56
2018-04-14T00:08:01.701Z,1003.57
2018-04-14T00:08:42.214Z,1003.53
2018-04-14T00:09:22.724Z,1003.58
2018-04-14T00:10:03.234Z,1003.55
2018-04-14T00:10:43.744Z,1003.5
2018-04-14T00:11:24.265Z,1003.55
2018-04-14T00:12:04.778Z,1003.6
2018-04-14T00:12:45.329Z,1003.63
2018-04-14T00:13:25.845Z,1003.62
2018-04-14T00:14:06.363Z,1003.64
2018-04-14T00:14:46.879Z,1003.62
2018-04-14T00:15:27.393Z,1003.62
2018-04-14T00:16:07.921Z,1003.6
2018-04-14T00:16:48.436Z,1003.61
2018-04-14T00:17:29.017Z,1003.64
2018-04-14T00:18:09.539Z,1003.68
2018-04-14T00:18:50.069Z,1003.63
2018-04-14T00:19:30.582Z,1003.72
2018-04-14T00:20:11.097Z,1003.68
2018-04-14T00:20:51.610Z,1003.67
2018-04-14T00:21:32.134Z,1003.68
2018-04-14T00:22:12.654Z,1003.68
2018-04-14T00:22:53.171Z,1003.67
2018-04-14T00:23:33.703Z,1003.7
2018-04-14T00:24:14.224Z,1003.68
2018-04-14T00:24:54.744Z,1003.68
2018-04-14T00:25:35.269Z,1003.68
2018-04-14T00:26:15.795Z,1003.66
2018-04-14T00:26:56.320Z,1003.71
2018-04-14T00:27:36.840Z,1003.78
2018-04-14T00:28:17.349Z,1003.74
2018-04-14T00:28:57.866Z,1003.75
2018-04-14T00:29:38.370Z,1003.74
2018-04-14T00:30:18.890Z,1003.72
2018-04-14T00:30:59.400Z,1003.72
2018-04-14T00:31:39.930Z,1003.78
2018-04-14T00:32:20.445Z,1003.76
2018-04-14T00:33:00.986Z,1003.76
2018-04-14T00:33:41.509Z,1003.77
2018-04-14T00:34:22.048Z,1003.76
2018-04-14T00:35:02.559Z,1003.79
2018-04-14T00:35:43.072Z,1003.78
2018-04-14T00:36:23.591Z,1003.76
2018-04-14T00:37:04.112Z,1003.77
2018-04-14T00:37:44.630Z,1003.74
2018-04-14T00:38:25.148Z,1003.78
2018-04-14T00:39:05.666Z,1003.75
2018-04-14T00:39:46.233Z,1003.71
2018-04-14T00:40:26.706Z,1003.76
2018-04-14T00:41:07.220Z,1003.77
2018-04-14T00:41:47.735Z,1003.81
2018-04-14T00:42:28.274Z,1003.78
2018-04-14T00:43:08.834Z,1003.77
2018-04-14T00:43:49.356Z,1003.74
2018-04-14T00:44:29.872Z,1003.81
2018-04-14T00:45:10.387Z,1003.8
2018-04-14T00:45:50.906Z,1003.71
2018-04-14T00:46:31.429Z,1003.75
2018-04-14T00:47:11.945Z,1003.8
2018-04-14T00:47:52.460Z,1003.78
2018-04-14T00:48:32.983Z,1003.82
2018-04-14T00:49:13.514Z,1003.79
2018-04-14T00:49:54.032Z,1003.83
2018-04-14T00:50:34.545Z,1003.83
2018-04-14T00:51:15.057Z,1003.82
2018-04-14T00:51:55.577Z,1003.87
2018-04-14T00:52:36.094Z,1003.91
2018-04-14T00:53:16.607Z,1003.87
2018-04-14T00:53:57.125Z,1003.82
2018-04-14T00:54:37.643Z,1003.81
2018-04-14T00:55:18.161Z,1003.83
2018-04-14T00:55:58.679Z,1003.85
2018-04-14T00:56:39.206Z,1003.83
2018-04-14T00:57:19.727Z,1003.83
2018-04-14T00:58:00.248Z,1003.88
2018-04-14T00:58:40.774Z,1003.88
2018-04-14T00:59:21.305Z,1003.89
2018-04-14T01:00:01.838Z,1003.85
2018-04-14T01:00:42.343Z,1003.87
2018-04-14T01:01:22.873Z,1003.87
2018-04-14T01:02:03.393Z,1003.87
2018-04-14T01:02:43.907Z,1003.86
2018-04-14T01:03:24.423Z,1003.86
2018-04-14T01:04:04.996Z,1003.84
2018-04-14T01:05:57.615Z,1003.89
2018-04-14T01:06:38.123Z,1003.84
2018-04-14T01:07:18.651Z,1003.84
2018-04-14T01:07:59.169Z,1003.81
2018-04-14T01:08:39.682Z,1003.83
2018-04-14T01:09:20.205Z,1003.89
2018-04-14T01:10:00.719Z,1003.85
2018-04-14T01:10:41.236Z,1003.86
2018-04-14T01:11:21.756Z,1003.87
2018-04-14T01:12:02.294Z,1003.83
2018-04-14T01:12:42.817Z,1003.86
2018-04-14T01:13:23.338Z,1003.86
2018-04-14T01:14:03.863Z,1003.9
2018-04-14T01:14:44.384Z,1003.9
2018-04-14T01:15:24.919Z,1003.84
2018-04-14T01:16:05.440Z,1003.87
2018-04-14T01:16:45.958Z,1003.85
2018-04-14T01:17:26.479Z,1003.84
2018-04-14T01:18:06.999Z,1003.87
2018-04-14T01:18:47.525Z,1003.89
2018-04-14T01:19:28.047Z,1003.83
2018-04-14T01:20:08.565Z,1003.84
2018-04-14T01:20:49.074Z,1003.86
2018-04-14T01:21:29.593Z,1003.89
2018-04-14T01:22:10.107Z,1003.85
2018-04-14T01:22:50.624Z,1003.83
2018-04-14T01:23:31.134Z,1003.86
2018-04-14T01:24:11.650Z,1003.89
2018-04-14T01:24:52.161Z,1003.86
2018-04-14T01:25:32.683Z,1003.88
2018-04-14T01:26:13.198Z,1003.92
2018-04-14T01:26:53.716Z,1003.9
2018-04-14T01:27:34.239Z,1003.89
2018-04-14T01:28:14.763Z,1003.92
2018-04-14T01:28:55.277Z,1003.91
2018-04-14T01:29:35.805Z,1003.92
2018-04-14T01:30:16.333Z,1003.89
2018-04-14T01:30:56.844Z,1003.93
2018-04-14T01:31:37.358Z,1003.95
2018-04-14T01:32:17.883Z,1003.97
2018-04-14T01:32:58.397Z,1003.96
2018-04-14T01:33:38.921Z,1003.96
2018-04-14T01:34:19.430Z,1003.99
2018-04-14T01:34:59.966Z,1003.96
2018-04-14T01:35:40.492Z,1004.05
2018-04-14T01:36:21.004Z,1003.99
2018-04-14T01:37:01.535Z,1004.02
2018-04-14T01:37:42.049Z,1004.06
2018-04-14T01:38:22.583Z,1004
2018-04-14T01:39:03.112Z,1004.03
2018-04-14T01:39:43.642Z,1003.98
2018-04-14T01:40:24.149Z,1004
2018-04-14T01:41:04.673Z,1004.03
2018-04-14T01:41:45.186Z,1004.03
2018-04-14T01:42:25.723Z,1004
2018-04-14T01:43:06.244Z,1004.06
2018-04-14T01:43:46.765Z,1004.07
2018-04-14T01:44:27.284Z,1004.08
2018-04-14T01:45:07.798Z,1004.06
2018-04-14T01:45:48.318Z,1004.1
2018-04-14T01:46:28.834Z,1004.07
2018-04-14T01:47:09.361Z,1004.09
2018-04-14T01:47:49.875Z,1004.09
2018-04-14T01:48:30.389Z,1004.09
2018-04-14T01:49:10.891Z,1004.08
2018-04-14T01:49:51.426Z,1004.05
2018-04-14T01:50:31.942Z,1004.05
2018-04-14T01:51:12.461Z,1004.04
2018-04-14T01:51:52.976Z,1004.05
2018-04-14T01:52:33.497Z,1004.02
2018-04-14T01:53:14.029Z,1004.04
2018-04-14T01:53:54.548Z,1004.04
2018-04-14T01:54:35.060Z,1004.01
2018-04-14T01:55:15.592Z,1004.07
2018-04-14T01:55:56.118Z,1004.05
2018-04-14T01:56:36.633Z,1004.03
2018-04-14T01:57:17.150Z,1004.07
2018-04-14T01:57:57.672Z,1004.03
2018-04-14T01:58:38.176Z,1004.02
2018-04-14T01:59:18.690Z,1004.05
2018-04-14T01:59:59.201Z,1004.06
2018-04-14T02:00:39.721Z,1004.03
2018-04-14T02:01:20.248Z,1004.04
2018-04-14T02:02:00.754Z,1004.11
2018-04-14T02:02:41.268Z,1004.12
2018-04-14T02:03:21.790Z,1004.13
2018-04-14T02:04:02.314Z,1004.15
2018-04-14T02:04:42.835Z,1004.09
2018-04-14T02:05:23.354Z,1004.13
2018-04-14T02:06:03.881Z,1004.16
2018-04-14T02:06:44.386Z,1004.17
2018-04-14T02:07:24.907Z,1004.18
2018-04-14T02:08:05.427Z,1004.14
2018-04-14T02:08:46.011Z,1004.13
2018-04-14T02:09:26.525Z,1004.17
2018-04-14T02:10:07.035Z,1004.17
2018-04-14T02:10:47.552Z,1004.18
2018-04-14T02:11:28.072Z,1004.18
2018-04-14T02:12:08.583Z,1004.14
2018-04-14T02:12:49.105Z,1004.22
2018-04-14T02:13:29.628Z,1004.14
2018-04-14T02:14:10.134Z,1004.18
2018-04-14T02:14:50.652Z,1004.13
2018-04-14T02:15:31.177Z,1004.12
2018-04-14T02:16:11.687Z,1004.15
2018-04-14T02:16:52.204Z,1004.13
2018-04-14T02:17:32.734Z,1004.1
2018-04-14T02:18:13.256Z,1004.08
2018-04-14T02:18:53.772Z,1004.11
2018-04-14T02:19:34.294Z,1004.13
2018-04-14T02:20:14.811Z,1004.09
2018-04-14T02:20:55.320Z,1004.09
2018-04-14T02:21:35.837Z,1004.1
2018-04-14T02:22:16.349Z,1004.08
2018-04-14T02:22:56.864Z,1004.13
2018-04-14T02:23:37.380Z,1004.11
2018-04-14T02:24:17.897Z,1004.12
2018-04-14T02:24:58.413Z,1004.1
2018-04-14T02:25:38.924Z,1004.09
2018-04-14T02:26:19.443Z,1004.05
2018-04-14T02:26:59.953Z,1004.1
2018-04-14T02:27:40.478Z,1004.08
2018-04-14T02:28:20.998Z,1004.11
2018-04-14T02:29:01.518Z,1004.09
2018-04-14T02:29:42.039Z,1004.08
2018-04-14T02:30:22.549Z,1004.11
2018-04-14T02:31:03.068Z,1004.09
2018-04-14T02:31:43.588Z,1004.07
2018-04-14T02:32:24.099Z,1004.09
2018-04-14T02:33:04.628Z,1004.05
2018-04-14T02:33:45.152Z,1004.08
2018-04-14T02:34:25.661Z,1004.09
2018-04-14T02:35:06.178Z,1004.07
2018-04-14T02:35:46.686Z,1004.11
2018-04-14T02:36:27.200Z,1004.13
2018-04-14T02:37:07.725Z,1004.09
2018-04-14T02:37:48.236Z,1004.12
2018-04-14T02:38:28.768Z,1004.05
2018-04-14T02:39:09.279Z,1004.1
2018-04-14T02:39:49.803Z,1004.08
2018-04-14T02:40:30.322Z,1004.1
2018-04-14T02:41:10.841Z,1004.07
2018-04-14T02:41:51.360Z,1004.05
2018-04-14T02:42:31.870Z,1004.08
2018-04-14T02:43:12.392Z,1004.07
2018-04-14T02:43:52.905Z,1004.06
2018-04-14T02:44:33.421Z,1004.08
2018-04-14T02:45:13.935Z,1004.1
2018-04-14T02:45:54.452Z,1004.13
2018-04-14T02:46:34.970Z,1004.12
2018-04-14T02:47:15.482Z,1004.11
2018-04-14T02:47:56.009Z,1004.09
2018-04-14T02:48:36.531Z,1004.17
2018-04-14T02:49:17.049Z,1004.15
2018-04-14T02:49:57.568Z,1004.13
2018-04-14T02:50:38.093Z,1004.17
2018-04-14T02:51:18.607Z,1004.1
2018-04-14T02:51:59.129Z,1004.09
2018-04-14T02:52:39.631Z,1004.16
2018-04-14T02:53:20.152Z,1004.17
2018-04-14T02:54:00.660Z,1004.17
2018-04-14T02:54:41.396Z,1004.16
2018-04-14T02:55:21.916Z,1004.18
2018-04-14T02:56:02.428Z,1004.17
2018-04-14T02:56:42.945Z,1004.24
2018-04-14T02:57:23.463Z,1004.19
2018-04-14T02:58:03.979Z,1004.21
2018-04-14T02:58:44.499Z,1004.21
2018-04-14T02:59:25.015Z,1004.16
2018-04-14T03:00:05.529Z,1004.17
2018-04-14T03:00:46.074Z,1004.15
2018-04-14T03:01:26.588Z,1004.15
2018-04-14T03:02:07.109Z,1004.18
2018-04-14T03:02:47.640Z,1004.18
2018-04-14T03:03:28.145Z,1004.17
2018-04-14T03:04:08.669Z,1004.26
2018-04-14T03:04:49.165Z,1004.15
2018-04-14T03:05:29.680Z,1004.23
2018-04-14T03:06:10.263Z,1004.19
2018-04-14T03:06:50.733Z,1004.16
2018-04-14T03:07:31.257Z,1004.15
2018-04-14T03:08:11.771Z,1004.2
2018-04-14T03:08:52.292Z,1004.19
2018-04-14T03:09:32.801Z,1004.22
2018-04-14T03:10:13.406Z,1004.2
2018-04-14T03:10:53.830Z,1004.23
2018-04-14T03:11:34.349Z,1004.25
2018-04-14T03:12:14.875Z,1004.24
2018-04-14T03:12:55.392Z,1004.24
2018-04-14T03:13:35.909Z,1004.22
2018-04-14T03:14:16.425Z,1004.29
2018-04-14T03:14:56.940Z,1004.29
2018-04-14T03:15:37.454Z,1004.25
2018-04-14T03:16:17.965Z,1004.21
2018-04-14T03:16:58.475Z,1004.29
2018-04-14T03:17:39.000Z,1004.26
2018-04-14T03:18:19.521Z,1004.26
2018-04-14T03:19:00.037Z,1004.34
2018-04-14T03:19:40.557Z,1004.32
2018-04-14T03:20:21.074Z,1004.33
2018-04-14T03:21:01.750Z,1004.29
2018-04-14T03:21:42.262Z,1004.38
2018-04-14T03:22:22.780Z,1004.37
2018-04-14T03:23:03.301Z,1004.34
2018-04-14T03:23:43.817Z,1004.37
2018-04-14T03:24:24.338Z,1004.36
2018-04-14T03:25:04.858Z,1004.32
2018-04-14T03:25:45.375Z,1004.34
2018-04-14T03:26:25.892Z,1004.32
2018-04-14T03:27:06.414Z,1004.36
2018-04-14T03:27:46.929Z,1004.31
2018-04-14T03:28:27.447Z,1004.32
2018-04-14T03:29:07.973Z,1004.31
2018-04-14T03:29:48.494Z,1004.33
2018-04-14T03:30:29.009Z,1004.34
2018-04-14T03:31:09.526Z,1004.36
2018-04-14T03:31:50.050Z,1004.38
2018-04-14T03:32:30.559Z,1004.36
2018-04-14T03:33:11.071Z,1004.38
2018-04-14T03:33:51.596Z,1004.41
2018-04-14T03:34:32.111Z,1004.42
2018-04-14T03:35:12.654Z,1004.45
2018-04-14T03:35:53.183Z,1004.44
2018-04-14T03:36:33.688Z,1004.42
2018-04-14T03:37:14.210Z,1004.47
2018-04-14T03:37:54.728Z,1004.43
2018-04-14T03:38:35.243Z,1004.42
2018-04-14T03:39:15.752Z,1004.4
2018-04-14T03:39:56.271Z,1004.4
2018-04-14T03:40:36.783Z,1004.4
2018-04-14T03:41:17.290Z,1004.43
2018-04-14T03:41:57.802Z,1004.46
2018-04-14T03:42:38.327Z,1004.46
2018-04-14T03:43:18.841Z,1004.45
2018-04-14T03:43:59.375Z,1004.46
2018-04-14T03:44:39.916Z,1004.49
2018-04-14T03:45:20.437Z,1004.53
2018-04-14T03:46:00.978Z,1004.52
2018-04-14T03:46:41.530Z,1004.51
2018-04-14T03:47:22.054Z,1004.54
2018-04-14T03:48:02.616Z,1004.56
2018-04-14T03:48:43.132Z,1004.62
2018-04-14T03:49:23.646Z,1004.57
2018-04-14T03:50:04.168Z,1004.59
2018-04-14T03:50:44.683Z,1004.56
2018-04-14T03:51:25.189Z,1004.59
2018-04-14T03:52:05.711Z,1004.6
2018-04-14T03:52:46.238Z,1004.56
2018-04-14T03:53:26.769Z,1004.61
2018-04-14T03:54:07.284Z,1004.59
2018-04-14T03:54:47.800Z,1004.64
2018-04-14T03:55:28.309Z,1004.62
2018-04-14T03:56:08.839Z,1004.6
2018-04-14T03:56:49.348Z,1004.62
2018-04-14T03:57:29.880Z,1004.63
2018-04-14T03:58:10.389Z,1004.59
2018-04-14T03:58:50.910Z,1004.64
2018-04-14T03:59:31.438Z,1004.63
2018-04-14T04:00:11.953Z,1004.66
2018-04-14T04:00:52.480Z,1004.65
2018-04-14T04:01:33.015Z,1004.68
2018-04-14T04:02:13.535Z,1004.7
2018-04-14T04:02:54.048Z,1004.71
2018-04-14T04:03:34.584Z,1004.7
2018-04-14T04:04:15.108Z,1004.73
2018-04-14T04:04:55.620Z,1004.72
2018-04-14T04:05:36.141Z,1004.72
2018-04-14T04:06:16.655Z,1004.74
2018-04-14T04:06:57.169Z,1004.77
2018-04-14T04:07:37.689Z,1004.71
2018-04-14T04:08:18.207Z,1004.75
2018-04-14T04:08:58.726Z,1004.78
2018-04-14T04:09:39.243Z,1004.77
2018-04-14T04:10:19.767Z,1004.8
2018-04-14T04:11:00.290Z,1004.81
2018-04-14T04:11:40.806Z,1004.8
2018-04-14T04:12:21.325Z,1004.81
2018-04-14T04:13:01.839Z,1004.8
2018-04-14T04:13:42.362Z,1004.77
2018-04-14T04:14:22.867Z,1004.81
2018-04-14T04:15:03.378Z,1004.79
2018-04-14T04:15:43.953Z,1004.83
2018-04-14T04:16:24.413Z,1004.8
2018-04-14T04:17:04.934Z,1004.84
2018-04-14T04:17:45.452Z,1004.8
2018-04-14T04:18:25.957Z,1004.88
2018-04-14T04:19:06.481Z,1004.83
2018-04-14T04:19:46.995Z,1004.84
2018-04-14T04:20:27.508Z,1004.8
2018-04-14T04:21:08.023Z,1004.82
2018-04-14T04:21:48.535Z,1004.84
2018-04-14T04:22:29.064Z,1004.87
2018-04-14T04:23:09.583Z,1004.87
2018-04-14T04:23:50.096Z,1004.87
2018-04-14T04:24:30.622Z,1004.86
2018-04-14T04:25:11.136Z,1004.9
2018-04-14T04:25:51.666Z,1004.88
2018-04-14T04:26:32.265Z,1004.9
2018-04-14T04:27:12.697Z,1004.94
2018-04-14T04:27:53.230Z,1004.93
2018-04-14T04:28:33.742Z,1004.94
2018-04-14T04:29:14.255Z,1004.96
2018-04-14T04:29:54.774Z,1004.91
2018-04-14T04:30:35.287Z,1004.98
2018-04-14T04:31:15.803Z,1004.98
2018-04-14T04:31:56.321Z,1005.02
2018-04-14T04:32:36.833Z,1005.03
2018-04-14T04:33:17.363Z,1005.01
2018-04-14T04:33:57.882Z,1005
2018-04-14T04:34:38.402Z,1005.01
2018-04-14T04:35:18.917Z,1004.96
2018-04-14T04:35:59.429Z,1004.95
2018-04-14T04:36:39.940Z,1004.96
2018-04-14T04:37:20.461Z,1005
2018-04-14T04:38:00.983Z,1004.99
2018-04-14T04:38:41.497Z,1005.02
2018-04-14T04:39:22.015Z,1005.02
2018-04-14T04:40:02.537Z,1005.04
2018-04-14T04:40:43.063Z,1005.07
2018-04-14T04:41:23.576Z,1005.05
2018-04-14T04:42:04.090Z,1005.08
2018-04-14T04:42:44.605Z,1005.08
2018-04-14T04:43:25.123Z,1005.14
2018-04-14T04:44:05.645Z,1005.12
2018-04-14T04:44:46.162Z,1005.12
2018-04-14T04:45:26.670Z,1005.13
2018-04-14T04:46:07.204Z,1005.16
2018-04-14T04:46:47.715Z,1005.18
2018-04-14T04:47:28.221Z,1005.16
2018-04-14T04:48:08.734Z,1005.21
2018-04-14T04:48:49.290Z,1005.2
2018-04-14T04:49:29.772Z,1005.24
2018-04-14T04:50:10.302Z,1005.22
2018-04-14T04:50:50.820Z,1005.27
2018-04-14T04:51:31.368Z,1005.3
2018-04-14T04:52:11.891Z,1005.23
2018-04-14T04:52:52.407Z,1005.3
2018-04-14T04:53:32.935Z,1005.31
2018-04-14T04:54:13.445Z,1005.31
2018-04-14T04:54:53.975Z,1005.33
2018-04-14T04:55:34.489Z,1005.35
2018-04-14T04:56:15.007Z,1005.38
2018-04-14T04:56:55.519Z,1005.37
2018-04-14T04:57:36.033Z,1005.36
2018-04-14T04:58:16.550Z,1005.35
2018-04-14T04:58:57.070Z,1005.38
2018-04-14T04:59:37.580Z,1005.4
2018-04-14T05:00:18.108Z,1005.41
2018-04-14T05:00:58.621Z,1005.43
2018-04-14T05:01:39.147Z,1005.4
2018-04-14T05:02:19.660Z,1005.39
2018-04-14T05:03:00.183Z,1005.4
2018-04-14T05:03:40.701Z,1005.37
2018-04-14T05:04:21.209Z,1005.41
2018-04-14T05:05:01.747Z,1005.45
2018-04-14T05:05:42.274Z,1005.47
2018-04-14T05:06:22.808Z,1005.47
2018-04-14T05:07:03.324Z,1005.47
2018-04-14T05:07:43.853Z,1005.5
2018-04-14T05:08:24.383Z,1005.49
2018-04-14T05:09:04.904Z,1005.52
2018-04-14T05:09:45.416Z,1005.5
2018-04-14T05:10:25.947Z,1005.55
2018-04-14T05:11:06.466Z,1005.53
2018-04-14T05:11:46.977Z,1005.54
2018-04-14T05:12:27.509Z,1005.54
2018-04-14T05:13:08.069Z,1005.49
2018-04-14T05:13:48.599Z,1005.57
2018-04-14T05:14:29.127Z,1005.5
2018-04-14T05:15:09.647Z,1005.51
2018-04-14T05:15:50.165Z,1005.51
2018-04-14T05:16:30.705Z,1005.51
2018-04-14T05:17:11.220Z,1005.47
2018-04-14T05:17:51.737Z,1005.53
2018-04-14T05:18:32.269Z,1005.54
2018-04-14T05:19:12.780Z,1005.56
2018-04-14T05:19:53.298Z,1005.56
2018-04-14T05:20:33.814Z,1005.59
2018-04-14T05:21:14.341Z,1005.59
2018-04-14T05:21:54.863Z,1005.61
2018-04-14T05:22:35.381Z,1005.6
2018-04-14T05:23:15.896Z,1005.61
2018-04-14T05:23:56.413Z,1005.61
2018-04-14T05:24:36.924Z,1005.63
2018-04-14T05:25:17.465Z,1005.65
2018-04-14T05:25:57.995Z,1005.65
2018-04-14T05:26:38.511Z,1005.67
2018-04-14T05:27:19.020Z,1005.64
2018-04-14T05:27:59.546Z,1005.65
2018-04-14T05:28:40.067Z,1005.63
2018-04-14T05:29:20.595Z,1005.66
2018-04-14T05:30:01.118Z,1005.66
2018-04-14T05:30:41.629Z,1005.68
2018-04-14T05:31:22.148Z,1005.66
2018-04-14T05:32:02.668Z,1005.69
2018-04-14T05:32:43.181Z,1005.75
2018-04-14T05:33:23.699Z,1005.71
2018-04-14T05:34:04.227Z,1005.75
2018-04-14T05:34:44.740Z,1005.75
2018-04-14T05:35:26.144Z,1005.75
2018-04-14T05:36:05.807Z,1005.77
2018-04-14T05:36:46.315Z,1005.75
2018-04-14T05:37:26.890Z,1005.78
2018-04-14T05:38:07.381Z,1005.79
2018-04-14T05:38:47.944Z,1005.73
2018-04-14T05:39:28.475Z,1005.73
2018-04-14T05:40:08.992Z,1005.71
2018-04-14T05:40:49.514Z,1005.7
2018-04-14T05:41:30.046Z,1005.73
2018-04-14T05:42:10.532Z,1005.73
2018-04-14T05:42:51.049Z,1005.77
2018-04-14T05:43:31.563Z,1005.77
2018-04-14T05:44:12.065Z,1005.75
2018-04-14T05:44:52.581Z,1005.77
2018-04-14T05:45:33.102Z,1005.81
2018-04-14T05:46:13.616Z,1005.82
2018-04-14T05:46:54.136Z,1005.81
2018-04-14T05:47:34.655Z,1005.83
2018-04-14T05:48:15.177Z,1005.82
2018-04-14T05:48:55.684Z,1005.82
2018-04-14T05:49:36.193Z,1005.78
2018-04-14T05:50:16.709Z,1005.77
2018-04-14T05:50:57.248Z,1005.81
2018-04-14T05:51:37.746Z,1005.79
2018-04-14T05:52:18.260Z,1005.82
2018-04-14T05:52:58.774Z,1005.79
2018-04-14T05:53:39.284Z,1005.79
2018-04-14T05:54:19.788Z,1005.86
2018-04-14T05:55:00.302Z,1005.82
2018-04-14T05:55:40.806Z,1005.81
2018-04-14T05:56:21.336Z,1005.79
2018-04-14T05:57:01.869Z,1005.83
2018-04-14T05:57:42.392Z,1005.85
2018-04-14T05:58:22.907Z,1005.83
2018-04-14T05:59:03.580Z,1005.85
2018-04-14T05:59:44.096Z,1005.85
2018-04-14T06:00:24.637Z,1005.85
2018-04-14T06:01:05.170Z,1005.85
2018-04-14T06:01:45.682Z,1005.88
2018-04-14T06:02:26.200Z,1005.89
2018-04-14T06:03:06.734Z,1005.85
2018-04-14T06:03:47.259Z,1005.89
2018-04-14T06:04:27.782Z,1005.89
2018-04-14T06:05:08.296Z,1005.9
2018-04-14T06:05:48.804Z,1005.92
2018-04-14T06:06:29.322Z,1005.94
2018-04-14T06:07:09.839Z,1005.94
2018-04-14T06:07:50.361Z,1005.95
2018-04-14T06:08:30.886Z,1005.95
2018-04-14T06:09:11.410Z,1005.96
2018-04-14T06:09:51.908Z,1006
2018-04-14T06:10:32.426Z,1006.03
2018-04-14T06:11:12.964Z,1006.04
2018-04-14T06:11:53.481Z,1006.03
2018-04-14T06:12:33.993Z,1006.02
2018-04-14T06:13:14.527Z,1006.05
2018-04-14T06:13:55.049Z,1006.03
2018-04-14T06:14:35.591Z,1006.01
2018-04-14T06:15:16.108Z,1006.08
2018-04-14T06:15:56.624Z,1006.07
2018-04-14T06:16:37.135Z,1006.1
2018-04-14T06:17:17.651Z,1006.09
2018-04-14T06:17:58.169Z,1006.07
2018-04-14T06:18:38.699Z,1006.11
2018-04-14T06:19:19.228Z,1006.11
2018-04-14T06:19:59.736Z,1006.11
2018-04-14T06:20:41.186Z,1006.1
2018-04-14T06:21:21.711Z,1006.09
2018-04-14T06:22:02.321Z,1006.13
2018-04-14T06:22:42.752Z,1006.16
2018-04-14T06:23:23.276Z,1006.23
2018-04-14T06:24:03.790Z,1006.25
2018-04-14T06:24:44.319Z,1006.24
2018-04-14T06:25:24.839Z,1006.24
2018-04-14T06:26:05.394Z,1006.25
2018-04-14T06:26:45.911Z,1006.25
2018-04-14T06:27:26.446Z,1006.23
2018-04-14T06:28:06.967Z,1006.21
2018-04-14T06:28:47.497Z,1006.21
2018-04-14T06:29:28.039Z,1006.23
2018-04-14T06:30:08.554Z,1006.21
2018-04-14T06:30:49.081Z,1006.25
2018-04-14T06:31:29.601Z,1006.26
2018-04-14T06:32:10.099Z,1006.27
2018-04-14T06:32:50.619Z,1006.3
2018-04-14T06:33:31.152Z,1006.24
2018-04-14T06:34:11.690Z,1006.32
2018-04-14T06:34:52.200Z,1006.36
2018-04-14T06:35:32.710Z,1006.28
2018-04-14T06:36:13.237Z,1006.32
2018-04-14T06:36:53.754Z,1006.35
2018-04-14T06:37:34.273Z,1006.32
2018-04-14T06:38:14.786Z,1006.28
2018-04-14T06:38:55.332Z,1006.34
2018-04-14T06:39:35.836Z,1006.32
2018-04-14T06:40:16.343Z,1006.33
2018-04-14T06:40:56.853Z,1006.31
2018-04-14T06:41:37.365Z,1006.32
2018-04-14T06:42:17.884Z,1006.34
2018-04-14T06:42:58.402Z,1006.36
2018-04-14T06:43:38.913Z,1006.47
2018-04-14T06:44:19.437Z,1006.36
2018-04-14T06:45:00.090Z,1006.4
2018-04-14T06:45:40.478Z,1006.41
2018-04-14T06:46:20.999Z,1006.45
2018-04-14T06:47:01.530Z,1006.4
2018-04-14T06:47:42.040Z,1006.4
2018-04-14T06:48:22.566Z,1006.42
2018-04-14T06:49:03.090Z,1006.48
2018-04-14T06:49:43.649Z,1006.45
2018-04-14T06:50:24.170Z,1006.48
2018-04-14T06:51:04.685Z,1006.5
2018-04-14T06:51:45.204Z,1006.49
2018-04-14T06:52:25.712Z,1006.5
2018-04-14T06:53:06.241Z,1006.52
2018-04-14T06:53:46.761Z,1006.52
2018-04-14T06:54:27.293Z,1006.53
2018-04-14T06:55:07.793Z,1006.56
2018-04-14T06:55:48.381Z,1006.6
2018-04-14T06:56:28.867Z,1006.59
2018-04-14T06:57:09.374Z,1006.6
2018-04-14T06:57:49.937Z,1006.6
2018-04-14T06:58:30.457Z,1006.6
2018-04-14T06:59:11.001Z,1006.61
2018-04-14T06:59:51.501Z,1006.54
2018-04-14T07:00:32.033Z,1006.58
2018-04-14T07:01:12.556Z,1006.57
2018-04-14T07:01:53.071Z,1006.56
2018-04-14T07:02:33.622Z,1006.59
2018-04-14T07:03:14.113Z,1006.59
2018-04-14T07:03:54.661Z,1006.61
2018-04-14T07:04:35.233Z,1006.61
2018-04-14T07:05:15.731Z,1006.62
2018-04-14T07:05:56.262Z,1006.62
2018-04-14T07:06:36.794Z,1006.61
2018-04-14T07:07:17.295Z,1006.66
2018-04-14T07:07:57.853Z,1006.68
2018-04-14T07:08:38.382Z,1006.66
2018-04-14T07:09:18.907Z,1006.63
2018-04-14T07:09:59.973Z,1006.66
2018-04-14T07:10:41.344Z,1006.67
2018-04-14T07:11:21.426Z,1006.68
2018-04-14T07:12:01.961Z,1006.67
2018-04-14T07:12:42.505Z,1006.66
2018-04-14T07:13:23.026Z,1006.67
2018-04-14T07:14:03.542Z,1006.71
2018-04-14T07:14:44.665Z,1006.71
2018-04-14T07:15:24.661Z,1006.7
2018-04-14T07:16:05.226Z,1006.7
2018-04-14T07:16:45.763Z,1006.67
2018-04-14T07:17:26.278Z,1006.73
2018-04-14T07:18:06.856Z,1006.71
2018-04-14T07:18:47.372Z,1006.75
2018-04-14T07:19:27.910Z,1006.79
2018-04-14T07:20:08.871Z,1006.75
2018-04-14T07:20:49.891Z,1006.77
2018-04-14T07:21:30.482Z,1006.79
2018-04-14T07:22:11.003Z,1006.8
2018-04-14T07:22:51.524Z,1006.8
2018-04-14T07:23:32.046Z,1006.79
2018-04-14T07:24:12.563Z,1006.77
2018-04-14T07:24:53.075Z,1006.79
2018-04-14T07:25:33.623Z,1006.79
2018-04-14T07:26:14.138Z,1006.79
2018-04-14T07:26:54.662Z,1006.79
2018-04-14T07:27:35.199Z,1006.83
2018-04-14T07:28:15.712Z,1006.77
2018-04-14T07:28:56.233Z,1006.77
2018-04-14T07:29:36.782Z,1006.82
2018-04-14T07:30:17.296Z,1006.77
2018-04-14T07:30:57.819Z,1006.81
2018-04-14T07:31:38.343Z,1006.83
2018-04-14T07:32:18.854Z,1006.87
2018-04-14T07:32:59.395Z,1006.84
2018-04-14T07:33:41.117Z,1006.88
2018-04-14T07:34:21.639Z,1006.82
2018-04-14T07:35:02.160Z,1006.82
2018-04-14T07:35:42.671Z,1006.84
2018-04-14T07:36:23.262Z,1006.83
2018-04-14T07:37:03.776Z,1006.78
2018-04-14T07:37:44.284Z,1006.8
2018-04-14T07:38:24.810Z,1006.79
2018-04-14T07:39:05.320Z,1006.79
2018-04-14T07:39:45.837Z,1006.77
2018-04-14T07:40:26.365Z,1006.8
2018-04-14T07:41:06.878Z,1006.78
2018-04-14T07:41:47.397Z,1006.79
2018-04-14T07:42:27.920Z,1006.76
2018-04-14T07:43:08.432Z,1006.77
2018-04-14T07:43:48.966Z,1006.81
2018-04-14T07:44:29.476Z,1006.81
2018-04-14T07:45:09.999Z,1006.79
2018-04-14T07:45:50.509Z,1006.78
2018-04-14T07:46:31.058Z,1006.79
2018-04-14T07:47:11.567Z,1006.78
2018-04-14T07:47:52.100Z,1006.75
2018-04-14T07:48:32.631Z,1006.82
2018-04-14T07:49:13.140Z,1006.77
2018-04-14T07:49:53.649Z,1006.74
2018-04-14T07:50:34.276Z,1006.77
2018-04-14T07:51:14.714Z,1006.78
2018-04-14T07:51:55.229Z,1006.81
2018-04-14T07:52:35.771Z,1006.77
2018-04-14T07:53:16.267Z,1006.81
2018-04-14T07:53:56.800Z,1006.83
2018-04-14T07:54:37.335Z,1006.81
2018-04-14T07:55:17.841Z,1006.81
2018-04-14T07:55:58.370Z,1006.83
2018-04-14T07:56:38.886Z,1006.86
2018-04-14T07:57:19.535Z,1006.85
2018-04-14T07:58:00.055Z,1006.84
2018-04-14T07:58:40.589Z,1006.82
2018-04-14T07:59:21.101Z,1006.87
2018-04-14T08:00:01.636Z,1006.88
2018-04-14T08:00:42.160Z,1006.85
2018-04-14T08:01:22.687Z,1006.93
2018-04-14T08:02:03.222Z,1006.89
2018-04-14T08:02:43.742Z,1006.85
2018-04-14T08:03:24.251Z,1006.89
2018-04-14T08:04:04.771Z,1006.89
2018-04-14T08:04:45.308Z,1006.9
2018-04-14T08:05:25.841Z,1006.9
2018-04-14T08:06:06.363Z,1006.9
2018-04-14T08:06:46.893Z,1006.88
2018-04-14T08:07:27.401Z,1006.92
2018-04-14T08:08:07.939Z,1006.91
2018-04-14T08:08:48.473Z,1006.89
2018-04-14T08:09:29.001Z,1006.94
2018-04-14T08:10:09.525Z,1006.88
2018-04-14T08:10:50.048Z,1006.88
2018-04-14T08:11:30.562Z,1006.95
2018-04-14T08:12:11.091Z,1006.89
2018-04-14T08:12:51.623Z,1006.87
2018-04-14T08:13:32.164Z,1006.87